Millboro Springs, Virginia
Current Conditions -  °F | °C
As of 4:35 PM on Friday 24 Oct 2014 (Local Time) from KHSP Reporting Station
Clear Clear  
Wind Chill: 59°   Ceiling: Unl
Heat Index: 59°   Visibility: 10mi
Dew Point: 33°   Wind: 9mph
Humidity: 38%   Direction: 280°W
Pressure: 30"   Gusts: NA
Location:  38.028°N, 79.6492°W
Report Text: KHSP 242035Z AUTO 28008KT 10SM CLR 15/01 A3000 RMK AO2 T01480006
Loading
Personal Weather Stations






























Interactive Weather Map
Tropical Storm Tracking
New forecast layout! Learn more

10-Day Weather Forecast

Advertisements
Track Severe Weather on mobile